Terminal Aerodrome Forecast
Issued by NWS Denver/Boulder, CO

Home | Current Version | Previous Version | Text Only | Print | Product List | Glossary On
Versions: 1 2 3 4 5 6 7 8 9 10 11 12 13 14 15 16 17 18 19 20 21 22 23 24 25 26 27 28 29 30 31 32 33 34 35 36 37 38 39 40 41 42 43 44 45 46 47 48 49 50
000
FTUS45 KBOU 200546
TAFDEN
TAF
KDEN 200546Z 2006/2112 15024G34KT 6SM BLDU SCT120 BKN220
      WS020/16050KT
     FM201000 15018G28KT P6SM SCT120 BKN220
     FM201400 15018G28KT P6SM SCT070 BKN120
     FM202000 12018G28KT P6SM VCSH SCT030 BKN050 OVC070 PROB30
      2021/2023 -SHRA BKN030
     FM202300 09014G22KT P6SM -RA BKN030 OVC050
     FM210300 04010KT 4SM -RA BR SCT008 OVC020
     FM210600 34006KT 2SM -RASN BR OVC008
      TEMPO 2108/2112 1SM -SN BR OVC004=

USA.gov is the U.S. government's official web portal to all federal, state and local government web resources and services.